sensor_id;sensor_type;location;lat;lon;timestamp;P1;durP1;ratioP1;P2;durP2;ratioP2
3417;SDS011;68007;51.312;12.372;2023-07-31T00:00:44;5.53;;;2.03;;
3417;SDS011;68007;51.312;12.372;2023-07-31T00:03:12;3.67;;;1.80;;
3417;SDS011;68007;51.312;12.372;2023-07-31T00:05:40;6.37;;;1.90;;
3417;SDS011;68007;51.312;12.372;2023-07-31T00:08:09;5.63;;;2.30;;
3417;SDS011;68007;51.312;12.372;2023-07-31T00:10:36;3.87;;;2.07;;
3417;SDS011;68007;51.312;12.372;2023-07-31T00:13:04;2.20;;;2.00;;
3417;SDS011;68007;51.312;12.372;2023-07-31T00:15:31;2.73;;;1.63;;
3417;SDS011;68007;51.312;12.372;2023-07-31T00:17:59;5.50;;;1.60;;
3417;SDS011;68007;51.312;12.372;2023-07-31T00:20:27;6.03;;;2.33;;
3417;SDS011;68007;51.312;12.372;2023-07-31T00:22:54;6.43;;;2.10;;
3417;SDS011;68007;51.312;12.372;2023-07-31T00:25:23;3.37;;;2.10;;
3417;SDS011;68007;51.312;12.372;2023-07-31T00:27:50;2.97;;;1.77;;
3417;SDS011;68007;51.312;12.372;2023-07-31T00:30:18;3.30;;;1.80;;
3417;SDS011;68007;51.312;12.372;2023-07-31T00:32:46;4.93;;;1.90;;
3417;SDS011;68007;51.312;12.372;2023-07-31T00:35:13;5.13;;;1.73;;
3417;SDS011;68007;51.312;12.372;2023-07-31T00:37:41;5.77;;;2.70;;
3417;SDS011;68007;51.312;12.372;2023-07-31T00:40:08;7.93;;;2.10;;
3417;SDS011;68007;51.312;12.372;2023-07-31T00:42:37;3.70;;;2.20;;
3417;SDS011;68007;51.312;12.372;2023-07-31T00:45:05;6.27;;;2.50;;
3417;SDS011;68007;51.312;12.372;2023-07-31T00:47:33;3.77;;;1.80;;
3417;SDS011;68007;51.312;12.372;2023-07-31T00:50:00;7.00;;;2.40;;
3417;SDS011;68007;51.312;12.372;2023-07-31T00:52:28;6.10;;;3.10;;
3417;SDS011;68007;51.312;12.372;2023-07-31T00:54:55;5.93;;;1.83;;
3417;SDS011;68007;51.312;12.372;2023-07-31T00:57:23;5.43;;;2.17;;
3417;SDS011;68007;51.312;12.372;2023-07-31T00:59:52;6.10;;;2.00;;
3417;SDS011;68007;51.312;12.372;2023-07-31T01:02:19;5.77;;;2.40;;
3417;SDS011;68007;51.312;12.372;2023-07-31T01:04:47;6.83;;;2.10;;
3417;SDS011;68007;51.312;12.372;2023-07-31T01:07:17;8.13;;;2.33;;
3417;SDS011;68007;51.312;12.372;2023-07-31T01:10:02;4.50;;;1.83;;
3417;SDS011;68007;51.312;12.372;2023-07-31T01:12:34;5.30;;;1.83;;
3417;SDS011;68007;51.312;12.372;2023-07-31T01:15:05;3.50;;;2.00;;
3417;SDS011;68007;51.312;12.372;2023-07-31T01:17:36;5.37;;;2.00;;
3417;SDS011;68007;51.312;12.372;2023-07-31T01:20:05;3.00;;;1.73;;
3417;SDS011;68007;51.312;12.372;2023-07-31T01:22:45;6.23;;;2.10;;
3417;SDS011;68007;51.312;12.372;2023-07-31T01:25:31;7.47;;;2.57;;
3417;SDS011;68007;51.312;12.372;2023-07-31T01:28:17;5.93;;;1.83;;
3417;SDS011;68007;51.312;12.372;2023-07-31T01:30:47;3.80;;;2.63;;
3417;SDS011;68007;51.312;12.372;2023-07-31T01:33:15;5.90;;;1.97;;
3417;SDS011;68007;51.312;12.372;2023-07-31T01:35:43;7.03;;;2.10;;
3417;SDS011;68007;51.312;12.372;2023-07-31T01:38:13;4.80;;;2.13;;
3417;SDS011;68007;51.312;12.372;2023-07-31T01:40:41;5.07;;;2.40;;
3417;SDS011;68007;51.312;12.372;2023-07-31T01:43:10;6.70;;;2.30;;
3417;SDS011;68007;51.312;12.372;2023-07-31T01:45:37;6.13;;;2.00;;
3417;SDS011;68007;51.312;12.372;2023-07-31T01:48:05;4.53;;;2.50;;
3417;SDS011;68007;51.312;12.372;2023-07-31T01:50:32;2.43;;;1.70;;
3417;SDS011;68007;51.312;12.372;2023-07-31T01:53:00;5.43;;;1.50;;
3417;SDS011;68007;51.312;12.372;2023-07-31T01:55:28;7.97;;;2.40;;
3417;SDS011;68007;51.312;12.372;2023-07-31T01:57:55;7.13;;;2.37;;
3417;SDS011;68007;51.312;12.372;2023-07-31T02:00:24;4.57;;;1.93;;
3417;SDS011;68007;51.312;12.372;2023-07-31T02:02:51;8.43;;;1.77;;
3417;SDS011;68007;51.312;12.372;2023-07-31T02:05:19;6.30;;;2.20;;
3417;SDS011;68007;51.312;12.372;2023-07-31T02:07:46;6.43;;;2.70;;
3417;SDS011;68007;51.312;12.372;2023-07-31T02:10:14;6.20;;;2.03;;
3417;SDS011;68007;51.312;12.372;2023-07-31T02:12:41;3.10;;;1.90;;
3417;SDS011;68007;51.312;12.372;2023-07-31T02:15:09;4.50;;;2.00;;
3417;SDS011;68007;51.312;12.372;2023-07-31T02:17:38;4.33;;;1.90;;
3417;SDS011;68007;51.312;12.372;2023-07-31T02:20:06;5.27;;;2.20;;
3417;SDS011;68007;51.312;12.372;2023-07-31T02:22:34;2.80;;;1.60;;
3417;SDS011;68007;51.312;12.372;2023-07-31T02:25:02;6.53;;;2.13;;
3417;SDS011;68007;51.312;12.372;2023-07-31T02:27:29;3.00;;;1.53;;
3417;SDS011;68007;51.312;12.372;2023-07-31T02:29:57;2.80;;;1.90;;
3417;SDS011;68007;51.312;12.372;2023-07-31T02:32:25;4.70;;;1.80;;
3417;SDS011;68007;51.312;12.372;2023-07-31T02:34:54;6.83;;;2.33;;
3417;SDS011;68007;51.312;12.372;2023-07-31T02:37:22;7.90;;;3.00;;
3417;SDS011;68007;51.312;12.372;2023-07-31T02:39:50;6.10;;;1.80;;
3417;SDS011;68007;51.312;12.372;2023-07-31T02:42:17;11.73;;;2.20;;
3417;SDS011;68007;51.312;12.372;2023-07-31T02:44:44;2.97;;;1.90;;
3417;SDS011;68007;51.312;12.372;2023-07-31T02:47:12;6.00;;;1.80;;
3417;SDS011;68007;51.312;12.372;2023-07-31T02:49:39;5.47;;;2.37;;
3417;SDS011;68007;51.312;12.372;2023-07-31T02:52:08;3.60;;;2.00;;
3417;SDS011;68007;51.312;12.372;2023-07-31T02:54:36;5.80;;;1.93;;
3417;SDS011;68007;51.312;12.372;2023-07-31T02:57:04;4.40;;;2.20;;
3417;SDS011;68007;51.312;12.372;2023-07-31T02:59:31;4.17;;;2.30;;
3417;SDS011;68007;51.312;12.372;2023-07-31T03:01:59;4.53;;;1.93;;
3417;SDS011;68007;51.312;12.372;2023-07-31T03:04:26;4.40;;;2.00;;
3417;SDS011;68007;51.312;12.372;2023-07-31T03:06:54;3.33;;;1.87;;
3417;SDS011;68007;51.312;12.372;2023-07-31T03:09:23;8.60;;;2.27;;
3417;SDS011;68007;51.312;12.372;2023-07-31T03:11:50;3.43;;;1.97;;
3417;SDS011;68007;51.312;12.372;2023-07-31T03:14:18;4.57;;;1.87;;
3417;SDS011;68007;51.312;12.372;2023-07-31T03:16:45;10.10;;;2.10;;
3417;SDS011;68007;51.312;12.372;2023-07-31T03:19:14;6.13;;;2.30;;
3417;SDS011;68007;51.312;12.372;2023-07-31T03:21:41;4.40;;;2.03;;
3417;SDS011;68007;51.312;12.372;2023-07-31T03:24:09;5.07;;;1.90;;
3417;SDS011;68007;51.312;12.372;2023-07-31T03:26:39;3.57;;;2.17;;
3417;SDS011;68007;51.312;12.372;2023-07-31T03:29:07;3.53;;;1.80;;
3417;SDS011;68007;51.312;12.372;2023-07-31T03:31:34;4.60;;;2.37;;
3417;SDS011;68007;51.312;12.372;2023-07-31T03:34:02;7.60;;;2.27;;
3417;SDS011;68007;51.312;12.372;2023-07-31T03:36:29;5.37;;;2.47;;
3417;SDS011;68007;51.312;12.372;2023-07-31T03:38:57;5.50;;;2.03;;
3417;SDS011;68007;51.312;12.372;2023-07-31T03:41:25;6.80;;;1.97;;
3417;SDS011;68007;51.312;12.372;2023-07-31T03:43:53;5.50;;;2.63;;
3417;SDS011;68007;51.312;12.372;2023-07-31T03:46:21;5.37;;;2.73;;
3417;SDS011;68007;51.312;12.372;2023-07-31T03:48:49;5.23;;;2.00;;
3417;SDS011;68007;51.312;12.372;2023-07-31T03:51:17;6.00;;;2.07;;
3417;SDS011;68007;51.312;12.372;2023-07-31T03:53:45;6.33;;;2.27;;
3417;SDS011;68007;51.312;12.372;2023-07-31T03:56:12;4.20;;;2.30;;
3417;SDS011;68007;51.312;12.372;2023-07-31T03:58:40;9.00;;;2.67;;
3417;SDS011;68007;51.312;12.372;2023-07-31T04:01:09;8.93;;;2.13;;
3417;SDS011;68007;51.312;12.372;2023-07-31T04:03:37;5.77;;;1.83;;
3417;SDS011;68007;51.312;12.372;2023-07-31T04:06:04;5.33;;;2.30;;
3417;SDS011;68007;51.312;12.372;2023-07-31T04:08:32;6.93;;;2.80;;
3417;SDS011;68007;51.312;12.372;2023-07-31T04:11:00;9.13;;;2.40;;
3417;SDS011;68007;51.312;12.372;2023-07-31T04:13:29;6.20;;;2.17;;
3417;SDS011;68007;51.312;12.372;2023-07-31T04:15:56;2.60;;;1.80;;
3417;SDS011;68007;51.312;12.372;2023-07-31T04:18:25;6.40;;;2.30;;
3417;SDS011;68007;51.312;12.372;2023-07-31T04:20:53;3.10;;;2.40;;
3417;SDS011;68007;51.312;12.372;2023-07-31T04:23:21;4.83;;;2.20;;
3417;SDS011;68007;51.312;12.372;2023-07-31T04:25:48;4.97;;;2.20;;
3417;SDS011;68007;51.312;12.372;2023-07-31T04:28:16;7.07;;;2.30;;
3417;SDS011;68007;51.312;12.372;2023-07-31T04:30:43;5.13;;;2.20;;
3417;SDS011;68007;51.312;12.372;2023-07-31T04:33:11;3.17;;;2.13;;
3417;SDS011;68007;51.312;12.372;2023-07-31T04:35:40;4.00;;;2.30;;
3417;SDS011;68007;51.312;12.372;2023-07-31T04:38:07;4.60;;;1.90;;
3417;SDS011;68007;51.312;12.372;2023-07-31T04:40:34;3.67;;;2.10;;
3417;SDS011;68007;51.312;12.372;2023-07-31T04:43:02;4.00;;;2.03;;
3417;SDS011;68007;51.312;12.372;2023-07-31T04:45:30;5.30;;;2.07;;
3417;SDS011;68007;51.312;12.372;2023-07-31T04:47:58;8.67;;;2.47;;
3417;SDS011;68007;51.312;12.372;2023-07-31T04:50:25;5.17;;;2.27;;
3417;SDS011;68007;51.312;12.372;2023-07-31T04:52:57;8.40;;;2.50;;
3417;SDS011;68007;51.312;12.372;2023-07-31T04:55:24;5.80;;;2.20;;
3417;SDS011;68007;51.312;12.372;2023-07-31T04:57:52;5.50;;;2.70;;
3417;SDS011;68007;51.312;12.372;2023-07-31T05:00:19;6.00;;;2.80;;
3417;SDS011;68007;51.312;12.372;2023-07-31T05:02:47;5.07;;;2.30;;
3417;SDS011;68007;51.312;12.372;2023-07-31T05:05:15;8.53;;;2.63;;
3417;SDS011;68007;51.312;12.372;2023-07-31T05:07:42;8.37;;;2.70;;
3417;SDS011;68007;51.312;12.372;2023-07-31T05:10:11;6.13;;;2.73;;
3417;SDS011;68007;51.312;12.372;2023-07-31T05:12:38;6.50;;;2.60;;
3417;SDS011;68007;51.312;12.372;2023-07-31T05:15:06;8.20;;;2.20;;
3417;SDS011;68007;51.312;12.372;2023-07-31T05:17:34;7.50;;;2.83;;
3417;SDS011;68007;51.312;12.372;2023-07-31T05:20:02;5.23;;;2.33;;
3417;SDS011;68007;51.312;12.372;2023-07-31T05:22:30;6.53;;;2.93;;
3417;SDS011;68007;51.312;12.372;2023-07-31T05:24:57;6.13;;;2.60;;
3417;SDS011;68007;51.312;12.372;2023-07-31T05:27:26;6.93;;;2.40;;
3417;SDS011;68007;51.312;12.372;2023-07-31T05:29:54;9.03;;;2.63;;
3417;SDS011;68007;51.312;12.372;2023-07-31T05:32:21;6.23;;;2.43;;
3417;SDS011;68007;51.312;12.372;2023-07-31T05:34:50;4.70;;;2.10;;
3417;SDS011;68007;51.312;12.372;2023-07-31T05:37:18;3.90;;;2.30;;
3417;SDS011;68007;51.312;12.372;2023-07-31T05:39:46;6.40;;;2.63;;
3417;SDS011;68007;51.312;12.372;2023-07-31T05:42:13;4.33;;;2.33;;
3417;SDS011;68007;51.312;12.372;2023-07-31T05:44:42;7.87;;;2.67;;
3417;SDS011;68007;51.312;12.372;2023-07-31T05:47:10;7.00;;;2.27;;
3417;SDS011;68007;51.312;12.372;2023-07-31T05:49:38;6.57;;;2.53;;
3417;SDS011;68007;51.312;12.372;2023-07-31T05:52:05;5.53;;;2.87;;
3417;SDS011;68007;51.312;12.372;2023-07-31T05:54:33;6.77;;;2.07;;
3417;SDS011;68007;51.312;12.372;2023-07-31T05:57:01;6.50;;;2.30;;
3417;SDS011;68007;51.312;12.372;2023-07-31T05:59:28;5.57;;;2.77;;
3417;SDS011;68007;51.312;12.372;2023-07-31T06:02:00;3.97;;;2.23;;
3417;SDS011;68007;51.312;12.372;2023-07-31T06:04:27;6.00;;;2.50;;
3417;SDS011;68007;51.312;12.372;2023-07-31T06:06:55;5.40;;;2.43;;
3417;SDS011;68007;51.312;12.372;2023-07-31T06:09:23;6.70;;;2.30;;
3417;SDS011;68007;51.312;12.372;2023-07-31T06:11:51;5.47;;;2.23;;
3417;SDS011;68007;51.312;12.372;2023-07-31T06:14:19;4.83;;;2.30;;
3417;SDS011;68007;51.312;12.372;2023-07-31T06:16:46;3.33;;;2.20;;
3417;SDS011;68007;51.312;12.372;2023-07-31T06:19:15;5.43;;;2.47;;
3417;SDS011;68007;51.312;12.372;2023-07-31T06:21:43;5.70;;;2.53;;
3417;SDS011;68007;51.312;12.372;2023-07-31T06:24:10;6.73;;;2.87;;
3417;SDS011;68007;51.312;12.372;2023-07-31T06:26:39;8.70;;;2.77;;
3417;SDS011;68007;51.312;12.372;2023-07-31T06:29:06;4.70;;;2.57;;
3417;SDS011;68007;51.312;12.372;2023-07-31T06:31:33;10.33;;;2.87;;
3417;SDS011;68007;51.312;12.372;2023-07-31T06:34:01;3.33;;;2.10;;
3417;SDS011;68007;51.312;12.372;2023-07-31T06:36:30;5.00;;;2.30;;
3417;SDS011;68007;51.312;12.372;2023-07-31T06:38:57;4.87;;;2.60;;
3417;SDS011;68007;51.312;12.372;2023-07-31T06:41:25;6.40;;;2.70;;
3417;SDS011;68007;51.312;12.372;2023-07-31T06:43:52;10.27;;;2.60;;
3417;SDS011;68007;51.312;12.372;2023-07-31T06:46:20;8.33;;;2.80;;
3417;SDS011;68007;51.312;12.372;2023-07-31T06:48:47;5.27;;;2.57;;
3417;SDS011;68007;51.312;12.372;2023-07-31T06:51:15;4.40;;;2.27;;
3417;SDS011;68007;51.312;12.372;2023-07-31T06:53:44;5.77;;;2.80;;
3417;SDS011;68007;51.312;12.372;2023-07-31T06:56:12;9.77;;;3.00;;
3417;SDS011;68007;51.312;12.372;2023-07-31T06:58:39;7.30;;;2.57;;
3417;SDS011;68007;51.312;12.372;2023-07-31T07:01:07;5.07;;;2.90;;
3417;SDS011;68007;51.312;12.372;2023-07-31T07:03:34;5.57;;;2.80;;
3417;SDS011;68007;51.312;12.372;2023-07-31T07:06:02;6.17;;;2.67;;
3417;SDS011;68007;51.312;12.372;2023-07-31T07:08:29;4.17;;;2.97;;
3417;SDS011;68007;51.312;12.372;2023-07-31T07:10:58;5.60;;;2.50;;
3417;SDS011;68007;51.312;12.372;2023-07-31T07:13:25;3.50;;;2.10;;
3417;SDS011;68007;51.312;12.372;2023-07-31T07:15:53;5.90;;;2.90;;
3417;SDS011;68007;51.312;12.372;2023-07-31T07:18:20;5.37;;;2.47;;
3417;SDS011;68007;51.312;12.372;2023-07-31T07:20:49;5.10;;;2.30;;
3417;SDS011;68007;51.312;12.372;2023-07-31T07:23:17;6.63;;;2.40;;
3417;SDS011;68007;51.312;12.372;2023-07-31T07:25:45;7.57;;;2.70;;
3417;SDS011;68007;51.312;12.372;2023-07-31T07:28:15;5.70;;;2.87;;
3417;SDS011;68007;51.312;12.372;2023-07-31T07:30:42;5.80;;;2.80;;
3417;SDS011;68007;51.312;12.372;2023-07-31T07:33:10;3.97;;;2.80;;
3417;SDS011;68007;51.312;12.372;2023-07-31T07:35:38;4.57;;;2.60;;
3417;SDS011;68007;51.312;12.372;2023-07-31T07:38:05;5.70;;;2.20;;
3417;SDS011;68007;51.312;12.372;2023-07-31T07:40:33;9.27;;;3.80;;
3417;SDS011;68007;51.312;12.372;2023-07-31T07:43:05;4.33;;;2.33;;
3417;SDS011;68007;51.312;12.372;2023-07-31T07:45:34;6.33;;;2.60;;
3417;SDS011;68007;51.312;12.372;2023-07-31T07:48:02;4.53;;;2.53;;
3417;SDS011;68007;51.312;12.372;2023-07-31T07:50:29;10.33;;;2.70;;
3417;SDS011;68007;51.312;12.372;2023-07-31T07:52:57;3.93;;;2.70;;
3417;SDS011;68007;51.312;12.372;2023-07-31T07:55:24;7.30;;;2.90;;
3417;SDS011;68007;51.312;12.372;2023-07-31T07:57:52;4.57;;;2.93;;
3417;SDS011;68007;51.312;12.372;2023-07-31T08:00:19;8.10;;;2.73;;
3417;SDS011;68007;51.312;12.372;2023-07-31T08:02:48;8.90;;;2.37;;
3417;SDS011;68007;51.312;12.372;2023-07-31T08:05:16;6.73;;;2.83;;
3417;SDS011;68007;51.312;12.372;2023-07-31T08:07:44;6.63;;;2.43;;
3417;SDS011;68007;51.312;12.372;2023-07-31T08:10:11;5.60;;;2.77;;
3417;SDS011;68007;51.312;12.372;2023-07-31T08:12:39;7.93;;;2.57;;
3417;SDS011;68007;51.312;12.372;2023-07-31T08:15:07;5.40;;;2.80;;
3417;SDS011;68007;51.312;12.372;2023-07-31T08:17:34;6.93;;;3.00;;
3417;SDS011;68007;51.312;12.372;2023-07-31T08:20:04;6.27;;;2.77;;
3417;SDS011;68007;51.312;12.372;2023-07-31T08:22:32;7.83;;;2.90;;
3417;SDS011;68007;51.312;12.372;2023-07-31T08:25:00;7.60;;;2.90;;
3417;SDS011;68007;51.312;12.372;2023-07-31T08:27:29;7.00;;;2.47;;
3417;SDS011;68007;51.312;12.372;2023-07-31T08:29:56;4.67;;;2.53;;
3417;SDS011;68007;51.312;12.372;2023-07-31T08:32:23;4.50;;;3.00;;
3417;SDS011;68007;51.312;12.372;2023-07-31T08:34:51;4.13;;;2.57;;
3417;SDS011;68007;51.312;12.372;2023-07-31T08:37:20;5.70;;;2.37;;
3417;SDS011;68007;51.312;12.372;2023-07-31T08:39:47;8.53;;;3.50;;
3417;SDS011;68007;51.312;12.372;2023-07-31T08:42:15;4.30;;;2.77;;
3417;SDS011;68007;51.312;12.372;2023-07-31T08:44:43;8.27;;;2.90;;
3417;SDS011;68007;51.312;12.372;2023-07-31T08:47:11;6.23;;;2.60;;
3417;SDS011;68007;51.312;12.372;2023-07-31T08:49:39;5.27;;;2.43;;
3417;SDS011;68007;51.312;12.372;2023-07-31T08:52:07;4.60;;;2.63;;
3417;SDS011;68007;51.312;12.372;2023-07-31T08:54:36;5.20;;;2.70;;
3417;SDS011;68007;51.312;12.372;2023-07-31T08:57:04;7.23;;;2.80;;
3417;SDS011;68007;51.312;12.372;2023-07-31T08:59:34;6.13;;;3.30;;
3417;SDS011;68007;51.312;12.372;2023-07-31T09:02:03;7.00;;;2.87;;
3417;SDS011;68007;51.312;12.372;2023-07-31T09:04:34;5.37;;;2.80;;
3417;SDS011;68007;51.312;12.372;2023-07-31T09:07:02;6.53;;;2.60;;
3417;SDS011;68007;51.312;12.372;2023-07-31T09:09:31;5.63;;;2.90;;
3417;SDS011;68007;51.312;12.372;2023-07-31T09:12:00;6.90;;;2.70;;
3417;SDS011;68007;51.312;12.372;2023-07-31T09:14:28;9.87;;;3.20;;
3417;SDS011;68007;51.312;12.372;2023-07-31T09:16:57;7.37;;;3.17;;
3417;SDS011;68007;51.312;12.372;2023-07-31T09:19:26;9.90;;;3.20;;
3417;SDS011;68007;51.312;12.372;2023-07-31T09:21:53;6.33;;;2.90;;
3417;SDS011;68007;51.312;12.372;2023-07-31T09:24:27;6.50;;;3.13;;
3417;SDS011;68007;51.312;12.372;2023-07-31T09:26:56;12.70;;;3.60;;
3417;SDS011;68007;51.312;12.372;2023-07-31T09:29:27;7.57;;;3.37;;
3417;SDS011;68007;51.312;12.372;2023-07-31T09:31:56;8.23;;;3.50;;
3417;SDS011;68007;51.312;12.372;2023-07-31T09:34:28;6.23;;;2.60;;
3417;SDS011;68007;51.312;12.372;2023-07-31T09:36:58;9.57;;;3.00;;
3417;SDS011;68007;51.312;12.372;2023-07-31T09:39:29;4.97;;;2.80;;
3417;SDS011;68007;51.312;12.372;2023-07-31T09:41:56;8.80;;;2.83;;
3417;SDS011;68007;51.312;12.372;2023-07-31T09:44:38;4.97;;;3.17;;
3417;SDS011;68007;51.312;12.372;2023-07-31T09:47:08;6.00;;;2.97;;
3417;SDS011;68007;51.312;12.372;2023-07-31T09:49:49;4.80;;;3.00;;
3417;SDS011;68007;51.312;12.372;2023-07-31T09:52:16;4.37;;;2.67;;
3417;SDS011;68007;51.312;12.372;2023-07-31T09:54:44;5.53;;;2.87;;
3417;SDS011;68007;51.312;12.372;2023-07-31T09:57:11;4.47;;;2.63;;
3417;SDS011;68007;51.312;12.372;2023-07-31T09:59:41;5.13;;;2.70;;
3417;SDS011;68007;51.312;12.372;2023-07-31T10:02:08;5.47;;;2.50;;
3417;SDS011;68007;51.312;12.372;2023-07-31T10:04:41;4.53;;;2.60;;
3417;SDS011;68007;51.312;12.372;2023-07-31T10:07:12;6.80;;;3.10;;
3417;SDS011;68007;51.312;12.372;2023-07-31T10:09:42;4.40;;;2.60;;
3417;SDS011;68007;51.312;12.372;2023-07-31T10:12:10;8.83;;;3.07;;
3417;SDS011;68007;51.312;12.372;2023-07-31T10:14:41;9.30;;;3.03;;
3417;SDS011;68007;51.312;12.372;2023-07-31T10:17:10;11.93;;;3.03;;
3417;SDS011;68007;51.312;12.372;2023-07-31T10:19:38;6.73;;;3.20;;
3417;SDS011;68007;51.312;12.372;2023-07-31T10:22:06;5.33;;;3.27;;
3417;SDS011;68007;51.312;12.372;2023-07-31T10:24:35;4.97;;;3.40;;
3417;SDS011;68007;51.312;12.372;2023-07-31T10:27:04;4.73;;;2.50;;
3417;SDS011;68007;51.312;12.372;2023-07-31T10:29:34;4.57;;;2.80;;
3417;SDS011;68007;51.312;12.372;2023-07-31T10:32:03;7.93;;;3.40;;
3417;SDS011;68007;51.312;12.372;2023-07-31T10:34:34;6.07;;;3.30;;
3417;SDS011;68007;51.312;12.372;2023-07-31T10:39:56;6.53;;;2.87;;
3417;SDS011;68007;51.312;12.372;2023-07-31T10:42:32;4.70;;;2.80;;
3417;SDS011;68007;51.312;12.372;2023-07-31T10:45:01;5.57;;;3.33;;
3417;SDS011;68007;51.312;12.372;2023-07-31T10:47:31;6.83;;;3.00;;
3417;SDS011;68007;51.312;12.372;2023-07-31T10:50:17;4.83;;;2.73;;
3417;SDS011;68007;51.312;12.372;2023-07-31T10:52:49;7.30;;;3.00;;
3417;SDS011;68007;51.312;12.372;2023-07-31T10:55:24;8.13;;;3.10;;
3417;SDS011;68007;51.312;12.372;2023-07-31T10:57:53;5.13;;;3.07;;
3417;SDS011;68007;51.312;12.372;2023-07-31T11:00:23;6.63;;;2.90;;
3417;SDS011;68007;51.312;12.372;2023-07-31T11:02:57;9.70;;;3.27;;
3417;SDS011;68007;51.312;12.372;2023-07-31T11:08:11;4.30;;;2.73;;
3417;SDS011;68007;51.312;12.372;2023-07-31T11:10:42;5.73;;;3.00;;
3417;SDS011;68007;51.312;12.372;2023-07-31T11:13:10;4.33;;;2.87;;
3417;SDS011;68007;51.312;12.372;2023-07-31T11:15:38;7.80;;;3.27;;
3417;SDS011;68007;51.312;12.372;2023-07-31T11:18:07;3.33;;;2.67;;
3417;SDS011;68007;51.312;12.372;2023-07-31T11:20:36;11.17;;;2.67;;
3417;SDS011;68007;51.312;12.372;2023-07-31T11:23:06;7.27;;;3.77;;
3417;SDS011;68007;51.312;12.372;2023-07-31T11:25:35;11.70;;;3.30;;
3417;SDS011;68007;51.312;12.372;2023-07-31T11:28:04;4.50;;;2.87;;
3417;SDS011;68007;51.312;12.372;2023-07-31T11:30:32;5.57;;;3.00;;
3417;SDS011;68007;51.312;12.372;2023-07-31T11:33:01;5.87;;;2.77;;
3417;SDS011;68007;51.312;12.372;2023-07-31T11:35:32;6.90;;;3.40;;
3417;SDS011;68007;51.312;12.372;2023-07-31T11:38:00;4.80;;;3.10;;
3417;SDS011;68007;51.312;12.372;2023-07-31T11:40:28;9.07;;;3.23;;
3417;SDS011;68007;51.312;12.372;2023-07-31T11:42:56;5.57;;;2.50;;
3417;SDS011;68007;51.312;12.372;2023-07-31T11:45:25;5.00;;;3.00;;
3417;SDS011;68007;51.312;12.372;2023-07-31T11:47:54;3.57;;;2.83;;
3417;SDS011;68007;51.312;12.372;2023-07-31T11:50:23;5.83;;;3.27;;
3417;SDS011;68007;51.312;12.372;2023-07-31T11:52:55;7.63;;;3.40;;
3417;SDS011;68007;51.312;12.372;2023-07-31T11:55:26;6.40;;;3.10;;
3417;SDS011;68007;51.312;12.372;2023-07-31T11:57:56;5.43;;;3.10;;
3417;SDS011;68007;51.312;12.372;2023-07-31T12:00:25;5.43;;;3.30;;
3417;SDS011;68007;51.312;12.372;2023-07-31T12:02:54;4.57;;;3.07;;
3417;SDS011;68007;51.312;12.372;2023-07-31T12:05:22;5.03;;;3.43;;
3417;SDS011;68007;51.312;12.372;2023-07-31T12:07:50;4.90;;;3.20;;
3417;SDS011;68007;51.312;12.372;2023-07-31T12:10:27;4.87;;;2.80;;
3417;SDS011;68007;51.312;12.372;2023-07-31T12:12:59;4.40;;;2.70;;
3417;SDS011;68007;51.312;12.372;2023-07-31T12:15:38;5.57;;;3.30;;
3417;SDS011;68007;51.312;12.372;2023-07-31T12:18:07;5.40;;;3.20;;
3417;SDS011;68007;51.312;12.372;2023-07-31T12:20:39;5.40;;;3.37;;
3417;SDS011;68007;51.312;12.372;2023-07-31T12:23:07;5.07;;;3.17;;
3417;SDS011;68007;51.312;12.372;2023-07-31T12:25:42;8.70;;;3.30;;
3417;SDS011;68007;51.312;12.372;2023-07-31T12:28:10;4.23;;;2.83;;
3417;SDS011;68007;51.312;12.372;2023-07-31T12:30:40;8.03;;;3.40;;
3417;SDS011;68007;51.312;12.372;2023-07-31T12:33:12;5.40;;;3.10;;
3417;SDS011;68007;51.312;12.372;2023-07-31T12:35:41;6.33;;;3.00;;
3417;SDS011;68007;51.312;12.372;2023-07-31T12:38:11;7.87;;;3.70;;
3417;SDS011;68007;51.312;12.372;2023-07-31T12:40:40;4.57;;;3.27;;
3417;SDS011;68007;51.312;12.372;2023-07-31T12:43:09;5.23;;;3.30;;
3417;SDS011;68007;51.312;12.372;2023-07-31T12:45:36;5.87;;;3.07;;
3417;SDS011;68007;51.312;12.372;2023-07-31T12:48:04;4.30;;;3.27;;
3417;SDS011;68007;51.312;12.372;2023-07-31T12:50:31;5.20;;;3.63;;
3417;SDS011;68007;51.312;12.372;2023-07-31T12:52:59;7.30;;;3.57;;
3417;SDS011;68007;51.312;12.372;2023-07-31T12:55:26;5.10;;;3.50;;
3417;SDS011;68007;51.312;12.372;2023-07-31T12:57:55;8.03;;;3.63;;
3417;SDS011;68007;51.312;12.372;2023-07-31T13:00:22;7.00;;;3.80;;
3417;SDS011;68007;51.312;12.372;2023-07-31T13:02:51;5.47;;;3.40;;
3417;SDS011;68007;51.312;12.372;2023-07-31T13:05:19;4.93;;;3.30;;
3417;SDS011;68007;51.312;12.372;2023-07-31T13:07:46;9.10;;;3.50;;
3417;SDS011;68007;51.312;12.372;2023-07-31T13:10:14;9.97;;;4.00;;
3417;SDS011;68007;51.312;12.372;2023-07-31T13:12:41;7.60;;;3.50;;
3417;SDS011;68007;51.312;12.372;2023-07-31T13:15:12;5.07;;;3.10;;
3417;SDS011;68007;51.312;12.372;2023-07-31T13:17:39;5.60;;;3.33;;
3417;SDS011;68007;51.312;12.372;2023-07-31T13:20:07;4.00;;;3.00;;
3417;SDS011;68007;51.312;12.372;2023-07-31T13:22:35;5.90;;;2.97;;
3417;SDS011;68007;51.312;12.372;2023-07-31T13:25:03;7.03;;;3.00;;
3417;SDS011;68007;51.312;12.372;2023-07-31T13:27:31;3.30;;;2.37;;
3417;SDS011;68007;51.312;12.372;2023-07-31T13:29:59;3.50;;;2.37;;
3417;SDS011;68007;51.312;12.372;2023-07-31T13:32:29;3.90;;;2.70;;
3417;SDS011;68007;51.312;12.372;2023-07-31T13:34:56;3.40;;;2.83;;
3417;SDS011;68007;51.312;12.372;2023-07-31T13:37:24;3.70;;;2.33;;
3417;SDS011;68007;51.312;12.372;2023-07-31T13:39:51;5.20;;;2.73;;
3417;SDS011;68007;51.312;12.372;2023-07-31T13:42:19;6.40;;;2.87;;
3417;SDS011;68007;51.312;12.372;2023-07-31T13:44:47;4.07;;;2.87;;
3417;SDS011;68007;51.312;12.372;2023-07-31T13:47:15;4.07;;;2.80;;
3417;SDS011;68007;51.312;12.372;2023-07-31T13:49:44;5.90;;;3.20;;
3417;SDS011;68007;51.312;12.372;2023-07-31T13:52:11;4.00;;;2.70;;
3417;SDS011;68007;51.312;12.372;2023-07-31T13:54:39;4.70;;;3.03;;
3417;SDS011;68007;51.312;12.372;2023-07-31T13:57:08;5.07;;;2.40;;
3417;SDS011;68007;51.312;12.372;2023-07-31T13:59:35;6.63;;;2.70;;
3417;SDS011;68007;51.312;12.372;2023-07-31T14:02:03;3.63;;;2.87;;
3417;SDS011;68007;51.312;12.372;2023-07-31T14:04:31;5.00;;;2.67;;
3417;SDS011;68007;51.312;12.372;2023-07-31T14:06:59;5.07;;;2.97;;
3417;SDS011;68007;51.312;12.372;2023-07-31T14:09:27;3.60;;;2.90;;
3417;SDS011;68007;51.312;12.372;2023-07-31T14:11:55;4.13;;;2.40;;
3417;SDS011;68007;51.312;12.372;2023-07-31T14:14:22;6.53;;;2.70;;
3417;SDS011;68007;51.312;12.372;2023-07-31T14:16:50;5.70;;;2.60;;
3417;SDS011;68007;51.312;12.372;2023-07-31T14:19:17;3.30;;;2.60;;
3417;SDS011;68007;51.312;12.372;2023-07-31T14:21:46;5.83;;;2.90;;
3417;SDS011;68007;51.312;12.372;2023-07-31T14:24:14;4.90;;;2.60;;
3417;SDS011;68007;51.312;12.372;2023-07-31T14:26:42;4.00;;;2.40;;
3417;SDS011;68007;51.312;12.372;2023-07-31T14:29:09;4.87;;;2.63;;
3417;SDS011;68007;51.312;12.372;2023-07-31T14:31:37;2.80;;;2.40;;
3417;SDS011;68007;51.312;12.372;2023-07-31T14:34:04;5.87;;;3.20;;
3417;SDS011;68007;51.312;12.372;2023-07-31T14:36:32;4.37;;;2.70;;
3417;SDS011;68007;51.312;12.372;2023-07-31T14:38:59;4.43;;;2.80;;
3417;SDS011;68007;51.312;12.372;2023-07-31T14:41:28;5.77;;;2.60;;
3417;SDS011;68007;51.312;12.372;2023-07-31T14:43:56;4.37;;;2.90;;
3417;SDS011;68007;51.312;12.372;2023-07-31T14:46:23;4.90;;;2.43;;
3417;SDS011;68007;51.312;12.372;2023-07-31T14:48:51;7.53;;;3.30;;
3417;SDS011;68007;51.312;12.372;2023-07-31T14:51:18;7.20;;;2.63;;
3417;SDS011;68007;51.312;12.372;2023-07-31T14:53:46;3.33;;;2.23;;
3417;SDS011;68007;51.312;12.372;2023-07-31T14:56:13;5.37;;;2.20;;
3417;SDS011;68007;51.312;12.372;2023-07-31T14:58:42;2.53;;;2.30;;
3417;SDS011;68007;51.312;12.372;2023-07-31T15:01:10;2.63;;;2.33;;